Time;durP1;ratioP1;P1;durP2;ratioP2;P2;SDS_P1;SDS_P2;PMS_P1;PMS_P2;Temp;Humidity;BMP_temperature;BMP_pressure;BME280_temperature;BME280_humidity;BME280_pressure;Samples;Min_cycle;Max_cycle;Signal;HPM_P1;HPM_P2
2022/10/06 00:01:12;;;;;;;;;;;;;;;;;;4969261;28;19919;-80
2022/10/06 00:03:38;;;;;;;;;;;;;;;;;;4972158;28;19917;-80
2022/10/06 00:06:04;;;;;;;;;;;;;;;;;;4968312;28;19911;-80
2022/10/06 00:08:30;;;;;;;;;;;;;;;;;;4970677;28;19945;-79
2022/10/06 00:10:56;;;;;;;;;;;;;;;;;;4968369;28;19911;-80
2022/10/06 00:13:22;;;;;;;;;;;;;;;;;;4971097;28;19922;-80
2022/10/06 00:15:47;;;;;;;;;;;;;;;;;;4966955;28;19910;-80
2022/10/06 00:18:12;;;;;;;;;;;;;;;;;;4970121;28;20167;-80
2022/10/06 00:20:38;;;;;;;;;;;;;;;;;;4968562;28;19977;-80
2022/10/06 00:23:03;;;;;;;;;;;;;;;;;;4971914;28;19918;-80
2022/10/06 00:25:28;;;;;;;;;;;;;;;;;;4966012;28;20269;-79
2022/10/06 00:27:54;;;;;;;;;;;;;;;;;;4969614;28;19941;-80
2022/10/06 00:30:24;;;;;;;;;;;;;;;;;;4968479;28;19922;-80
2022/10/06 00:32:59;;;;;;;;;;;;;;;;;;4975085;28;20040;-79
2022/10/06 00:35:26;;;;;;;;;;;;;;;;;;4972600;28;19973;-79
2022/10/06 00:37:51;;;;;;;;;;;;;;;;;;4975188;28;20102;-79
2022/10/06 00:40:17;;;;;;;;;;;;;;;;;;4982448;28;19944;-79
2022/10/06 00:42:53;;;;;;;;;;;;;;;;;;4982466;28;19917;-79
2022/10/06 00:45:25;;;;;;;;;;;;;;;;;;4976380;28;20193;-79
2022/10/06 00:47:51;;;;;;;;;;;;;;;;;;4982402;28;19914;-79
2022/10/06 00:50:17;;;;;;;;;;;;;;;;;;4982327;28;20010;-79
2022/10/06 00:52:42;;;;;;;;;;;;;;;;;;4982202;28;20211;-79
2022/10/06 00:55:08;;;;;;;;;;;;;;;;;;4982039;28;20138;-79
2022/10/06 00:57:37;;;;;;;;;;;;;;;;;;4982624;28;20255;-79
2022/10/06 01:00:06;;;;;;;;;;;;;;;;;;4974781;28;20150;-79
2022/10/06 01:02:34;;;;;;;;;;;;;;;;;;4976557;28;20249;-79
2022/10/06 01:05:02;;;;;;;;;;;;;;;;;;4977940;28;20013;-79
2022/10/06 01:07:28;;;;;;;;;;;;;;;;;;4977519;28;19925;-79
2022/10/06 01:09:54;;;;;;;;;;;;;;;;;;4983545;28;19910;-79
2022/10/06 01:12:20;;;;;;;;;;;;;;;;;;4988818;28;20000;-79
2022/10/06 01:14:45;;;;;;;;;;;;;;;;;;4988443;28;19953;-79
2022/10/06 01:17:15;;;;;;;;;;;;;;;;;;4988586;28;19925;-79
2022/10/06 01:19:43;;;;;;;;;;;;;;;;;;4987079;28;20213;-79
2022/10/06 01:22:10;;;;;;;;;;;;;;;;;;4987978;28;19965;-79
2022/10/06 01:24:35;;;;;;;;;;;;;;;;;;4988332;28;19993;-79
2022/10/06 01:27:02;;;;;;;;;;;;;;;;;;4988750;28;19917;-79
2022/10/06 01:29:27;;;;;;;;;;;;;;;;;;4988580;28;19917;-79
2022/10/06 01:31:52;;;;;;;;;;;;;;;;;;4988211;28;19914;-79
2022/10/06 01:34:18;;;;;;;;;;;;;;;;;;4988119;28;19941;-79
2022/10/06 01:36:43;;;;;;;;;;;;;;;;;;4988113;28;19920;-80
2022/10/06 01:39:08;;;;;;;;;;;;;;;;;;4988108;28;19914;-79
2022/10/06 01:41:33;;;;;;;;;;;;;;;;;;4988469;28;19917;-79
2022/10/06 01:43:59;;;;;;;;;;;;;;;;;;4988261;28;19925;-79
2022/10/06 01:46:24;;;;;;;;;;;;;;;;;;4988310;28;19997;-79
2022/10/06 01:48:49;;;;;;;;;;;;;;;;;;4988366;28;20152;-79
2022/10/06 01:51:15;;;;;;;;;;;;;;;;;;4987344;28;20106;-78
2022/10/06 01:53:40;;;;;;;;;;;;;;;;;;4986913;28;19956;-79
2022/10/06 01:56:05;;;;;;;;;;;;;;;;;;4987741;28;19932;-79
2022/10/06 01:58:30;;;;;;;;;;;;;;;;;;4988306;28;19910;-79
2022/10/06 02:00:56;;;;;;;;;;;;;;;;;;4988075;28;19917;-79
2022/10/06 02:03:21;;;;;;;;;;;;;;;;;;4986579;28;20545;-79
2022/10/06 02:05:46;;;;;;;;;;;;;;;;;;4987672;28;19922;-79
2022/10/06 02:08:11;;;;;;;;;;;;;;;;;;4988135;28;19977;-79
2022/10/06 02:10:37;;;;;;;;;;;;;;;;;;4987934;28;19918;-79
2022/10/06 02:13:02;;;;;;;;;;;;;;;;;;4988003;28;19957;-78
2022/10/06 02:15:31;;;;;;;;;;;;;;;;;;4988251;28;20143;-79
2022/10/06 02:17:57;;;;;;;;;;;;;;;;;;4988343;28;19928;-79
2022/10/06 02:20:22;;;;;;;;;;;;;;;;;;4985173;28;20140;-79
2022/10/06 02:22:47;;;;;;;;;;;;;;;;;;4985223;28;19910;-79
2022/10/06 02:25:13;;;;;;;;;;;;;;;;;;4984476;28;19921;-79
2022/10/06 02:27:38;;;;;;;;;;;;;;;;;;4983483;28;19981;-79
2022/10/06 02:30:07;;;;;;;;;;;;;;;;;;4985086;28;19910;-79
2022/10/06 02:32:37;;;;;;;;;;;;;;;;;;4984962;28;20106;-79
2022/10/06 02:35:02;;;;;;;;;;;;;;;;;;4983392;28;19914;-79
2022/10/06 02:37:28;;;;;;;;;;;;;;;;;;4978642;28;20090;-79
2022/10/06 02:39:54;;;;;;;;;;;;;;;;;;4984519;28;20205;-79
2022/10/06 02:42:19;;;;;;;;;;;;;;;;;;4984666;28;19945;-79
2022/10/06 02:44:44;;;;;;;;;;;;;;;;;;4984403;28;19929;-79
2022/10/06 02:47:13;;;;;;;;;;;;;;;;;;4983727;28;19922;-78
2022/10/06 02:49:38;;;;;;;;;;;;;;;;;;4982653;28;20224;-78
2022/10/06 02:52:04;;;;;;;;;;;;;;;;;;4983759;28;20194;-79
2022/10/06 02:54:29;;;;;;;;;;;;;;;;;;4984360;28;20000;-77
2022/10/06 02:56:54;;;;;;;;;;;;;;;;;;4984438;28;20090;-78
2022/10/06 02:59:19;;;;;;;;;;;;;;;;;;4983894;28;19917;-78
2022/10/06 03:01:45;;;;;;;;;;;;;;;;;;4984462;28;20022;-79
2022/10/06 03:04:10;;;;;;;;;;;;;;;;;;4982925;28;19917;-79
2022/10/06 03:06:36;;;;;;;;;;;;;;;;;;4984142;28;20178;-79
2022/10/06 03:09:06;;;;;;;;;;;;;;;;;;4983137;28;20110;-79
2022/10/06 03:11:41;;;;;;;;;;;;;;;;;;4984190;28;19910;-79
2022/10/06 03:14:07;;;;;;;;;;;;;;;;;;4979504;28;19910;-78
2022/10/06 03:16:34;;;;;;;;;;;;;;;;;;4983960;28;19942;-79
2022/10/06 03:18:59;;;;;;;;;;;;;;;;;;4984061;28;19981;-79
2022/10/06 03:21:27;;;;;;;;;;;;;;;;;;4982345;28;19922;-78
2022/10/06 03:23:52;;;;;;;;;;;;;;;;;;4984147;28;19917;-79
2022/10/06 03:26:20;;;;;;;;;;;;;;;;;;4983533;28;19922;-79
2022/10/06 03:28:45;;;;;;;;;;;;;;;;;;4978019;28;19918;-79
2022/10/06 03:31:11;;;;;;;;;;;;;;;;;;4982158;28;19921;-79
2022/10/06 03:33:36;;;;;;;;;;;;;;;;;;4981528;28;19981;-79
2022/10/06 03:36:04;;;;;;;;;;;;;;;;;;4983272;28;19940;-78
2022/10/06 03:38:30;;;;;;;;;;;;;;;;;;4982649;28;19906;-78
2022/10/06 03:41:06;;;;;;;;;;;;;;;;;;4978286;28;19953;-78
2022/10/06 03:43:32;;;;;;;;;;;;;;;;;;4982245;28;20118;-78
2022/10/06 03:45:59;;;;;;;;;;;;;;;;;;4976460;28;19909;-79
2022/10/06 03:48:25;;;;;;;;;;;;;;;;;;4983478;28;19921;-78
2022/10/06 03:50:57;;;;;;;;;;;;;;;;;;4981800;28;19906;-79
2022/10/06 03:53:26;;;;;;;;;;;;;;;;;;4977591;28;19916;-79
2022/10/06 03:55:59;;;;;;;;;;;;;;;;;;4977727;28;19929;-79
2022/10/06 03:58:24;;;;;;;;;;;;;;;;;;4978203;28;19995;-79
2022/10/06 04:00:56;;;;;;;;;;;;;;;;;;4983196;28;19910;-79
2022/10/06 04:03:22;;;;;;;;;;;;;;;;;;4982661;28;19914;-79
2022/10/06 04:05:54;;;;;;;;;;;;;;;;;;4982859;28;19936;-78
2022/10/06 04:08:19;;;;;;;;;;;;;;;;;;4983092;28;19910;-78
2022/10/06 04:10:45;;;;;;;;;;;;;;;;;;4981906;28;19973;-78
2022/10/06 04:13:10;;;;;;;;;;;;;;;;;;4979865;28;19932;-78
2022/10/06 04:15:35;;;;;;;;;;;;;;;;;;4975867;28;19910;-79
2022/10/06 04:18:00;;;;;;;;;;;;;;;;;;4976704;28;19920;-78
2022/10/06 04:20:25;;;;;;;;;;;;;;;;;;4982646;28;19969;-79
2022/10/06 04:22:51;;;;;;;;;;;;;;;;;;4983075;28;19910;-78
2022/10/06 04:25:16;;;;;;;;;;;;;;;;;;4982527;28;20082;-78
2022/10/06 04:27:41;;;;;;;;;;;;;;;;;;4982652;28;19914;-78
2022/10/06 04:30:07;;;;;;;;;;;;;;;;;;4980024;28;19969;-78
2022/10/06 04:32:32;;;;;;;;;;;;;;;;;;4971740;28;20131;-79
2022/10/06 04:34:57;;;;;;;;;;;;;;;;;;4980749;28;19914;-80
2022/10/06 04:37:22;;;;;;;;;;;;;;;;;;4982183;28;19928;-79
2022/10/06 04:39:48;;;;;;;;;;;;;;;;;;4981069;28;19964;-78
2022/10/06 04:42:13;;;;;;;;;;;;;;;;;;4981628;28;19914;-79
2022/10/06 04:44:38;;;;;;;;;;;;;;;;;;4981948;28;19926;-79
2022/10/06 04:47:03;;;;;;;;;;;;;;;;;;4981375;28;19917;-78
2022/10/06 04:49:29;;;;;;;;;;;;;;;;;;4982265;28;20202;-78
2022/10/06 04:51:54;;;;;;;;;;;;;;;;;;4982401;28;19913;-78
2022/10/06 04:54:19;;;;;;;;;;;;;;;;;;4981931;28;19925;-79
2022/10/06 04:56:45;;;;;;;;;;;;;;;;;;4982488;28;19918;-78
2022/10/06 04:59:10;;;;;;;;;;;;;;;;;;4981977;28;19913;-79
2022/10/06 05:01:36;;;;;;;;;;;;;;;;;;4981896;28;19981;-79
2022/10/06 05:04:01;;;;;;;;;;;;;;;;;;4982339;28;19914;-78
2022/10/06 05:06:28;;;;;;;;;;;;;;;;;;4981916;28;19921;-78
2022/10/06 05:08:55;;;;;;;;;;;;;;;;;;4982333;28;20198;-79
2022/10/06 05:11:21;;;;;;;;;;;;;;;;;;4981294;28;19961;-78
2022/10/06 05:13:48;;;;;;;;;;;;;;;;;;4982101;28;19910;-79
2022/10/06 05:16:14;;;;;;;;;;;;;;;;;;4980698;28;19910;-79
2022/10/06 05:18:39;;;;;;;;;;;;;;;;;;4981246;28;20105;-78
2022/10/06 05:21:15;;;;;;;;;;;;;;;;;;4979471;28;19910;-78
2022/10/06 05:23:41;;;;;;;;;;;;;;;;;;4982019;28;19917;-79
2022/10/06 05:26:06;;;;;;;;;;;;;;;;;;4982196;28;19980;-78
2022/10/06 05:28:31;;;;;;;;;;;;;;;;;;4982292;28;19917;-78
2022/10/06 05:31:00;;;;;;;;;;;;;;;;;;4981088;28;19910;-79
2022/10/06 05:33:26;;;;;;;;;;;;;;;;;;4975572;28;20202;-78
2022/10/06 05:35:59;;;;;;;;;;;;;;;;;;4981433;28;19945;-79
2022/10/06 05:38:24;;;;;;;;;;;;;;;;;;4980987;28;19998;-78
2022/10/06 05:40:50;;;;;;;;;;;;;;;;;;4980477;28;19914;-78
2022/10/06 05:43:16;;;;;;;;;;;;;;;;;;4981888;28;19921;-78
2022/10/06 05:45:51;;;;;;;;;;;;;;;;;;4981775;28;19981;-78
2022/10/06 05:48:17;;;;;;;;;;;;;;;;;;4980608;28;19918;-78
2022/10/06 05:50:42;;;;;;;;;;;;;;;;;;4980945;28;19960;-79
2022/10/06 05:53:08;;;;;;;;;;;;;;;;;;4973760;28;20131;-78
2022/10/06 05:55:33;;;;;;;;;;;;;;;;;;4978320;28;19913;-79
2022/10/06 05:57:58;;;;;;;;;;;;;;;;;;4979267;28;19916;-79
2022/10/06 06:00:23;;;;;;;;;;;;;;;;;;4985306;28;19917;-78
2022/10/06 06:02:49;;;;;;;;;;;;;;;;;;4984659;28;19910;-78
2022/10/06 06:05:14;;;;;;;;;;;;;;;;;;4984869;28;20000;-78
2022/10/06 06:07:39;;;;;;;;;;;;;;;;;;4978695;28;19941;-78
2022/10/06 06:10:05;;;;;;;;;;;;;;;;;;4985196;28;19929;-78
2022/10/06 06:12:30;;;;;;;;;;;;;;;;;;4985277;28;20189;-78
2022/10/06 06:17:39;;;;;;;;;;;;;;;;;;4985358;28;20105;-78
2022/10/06 06:20:05;;;;;;;;;;;;;;;;;;4984961;28;20208;-79
2022/10/06 06:22:30;;;;;;;;;;;;;;;;;;4984969;28;19973;-79
2022/10/06 06:24:56;;;;;;;;;;;;;;;;;;4985110;28;19957;-79
2022/10/06 06:27:21;;;;;;;;;;;;;;;;;;4985210;28;20029;-79
2022/10/06 06:29:47;;;;;;;;;;;;;;;;;;4984646;28;20217;-79
2022/10/06 06:32:12;;;;;;;;;;;;;;;;;;4984698;28;19918;-79
2022/10/06 06:34:37;;;;;;;;;;;;;;;;;;4985035;28;19980;-78
2022/10/06 06:37:03;;;;;;;;;;;;;;;;;;4984772;28;19910;-79
2022/10/06 06:39:28;;;;;;;;;;;;;;;;;;4983962;28;19921;-79
2022/10/06 06:41:53;;;;;;;;;;;;;;;;;;4984612;28;19941;-79
2022/10/06 06:44:19;;;;;;;;;;;;;;;;;;4984340;28;19910;-79
2022/10/06 06:46:48;;;;;;;;;;;;;;;;;;4984976;28;20241;-79
2022/10/06 06:49:14;;;;;;;;;;;;;;;;;;4984512;28;19921;-78
2022/10/06 06:51:40;;;;;;;;;;;;;;;;;;4984426;28;19945;-79
2022/10/06 06:54:06;;;;;;;;;;;;;;;;;;4984743;28;19917;-79
2022/10/06 06:56:35;;;;;;;;;;;;;;;;;;4983669;28;19910;-79
2022/10/06 06:59:09;;;;;;;;;;;;;;;;;;4978640;28;19941;-79
2022/10/06 07:01:34;;;;;;;;;;;;;;;;;;4979083;28;20149;-79
2022/10/06 07:04:00;;;;;;;;;;;;;;;;;;4984558;28;19949;-79
2022/10/06 07:06:27;;;;;;;;;;;;;;;;;;4982636;28;20102;-79
2022/10/06 07:08:53;;;;;;;;;;;;;;;;;;4979213;28;19942;-80
2022/10/06 07:11:19;;;;;;;;;;;;;;;;;;4983503;28;20106;-79
2022/10/06 07:13:45;;;;;;;;;;;;;;;;;;4984073;28;19917;-79
2022/10/06 07:27:07;;;;;;;;;;;;;;;;;;4984038;28;19956;-78
2022/10/06 07:29:32;;;;;;;;;;;;;;;;;;4984060;28;20194;-78
2022/10/06 07:31:57;;;;;;;;;;;;;;;;;;4984044;28;20080;-78
2022/10/06 07:34:23;;;;;;;;;;;;;;;;;;4983820;28;19910;-78
2022/10/06 07:36:53;;;;;;;;;;;;;;;;;;4983570;28;19949;-78
2022/10/06 07:39:18;;;;;;;;;;;;;;;;;;4981802;28;19914;-78
2022/10/06 07:41:43;;;;;;;;;;;;;;;;;;4983787;28;19956;-78
2022/10/06 07:44:09;;;;;;;;;;;;;;;;;;4983594;28;19910;-78
2022/10/06 07:46:34;;;;;;;;;;;;;;;;;;4983726;28;19917;-78
2022/10/06 07:48:59;;;;;;;;;;;;;;;;;;4983895;28;19970;-78
2022/10/06 07:51:26;;;;;;;;;;;;;;;;;;4983205;28;19910;-78
2022/10/06 07:53:52;;;;;;;;;;;;;;;;;;4977108;28;20122;-78
2022/10/06 07:56:19;;;;;;;;;;;;;;;;;;4983309;28;19914;-77
2022/10/06 07:58:45;;;;;;;;;;;;;;;;;;4983212;28;19991;-78
2022/10/06 08:01:12;;;;;;;;;;;;;;;;;;4979905;28;19917;-78
2022/10/06 08:03:37;;;;;;;;;;;;;;;;;;4983351;28;19910;-78
2022/10/06 08:06:03;;;;;;;;;;;;;;;;;;4983013;28;19917;-79
2022/10/06 08:08:29;;;;;;;;;;;;;;;;;;4983047;28;19974;-79
2022/10/06 08:10:56;;;;;;;;;;;;;;;;;;4982872;28;20142;-79
2022/10/06 08:13:22;;;;;;;;;;;;;;;;;;4979608;28;19981;-78
2022/10/06 08:15:48;;;;;;;;;;;;;;;;;;4981775;28;19914;-79
2022/10/06 08:18:14;;;;;;;;;;;;;;;;;;4981679;28;20083;-79
2022/10/06 08:20:39;;;;;;;;;;;;;;;;;;4981323;28;20001;-79
2022/10/06 08:23:07;;;;;;;;;;;;;;;;;;4982154;28;19917;-79
2022/10/06 08:25:35;;;;;;;;;;;;;;;;;;4981653;28;20209;-80
2022/10/06 08:28:00;;;;;;;;;;;;;;;;;;4981067;28;19922;-80
2022/10/06 08:30:26;;;;;;;;;;;;;;;;;;4974784;28;19929;-78
2022/10/06 08:32:52;;;;;;;;;;;;;;;;;;4967856;28;19911;-78
2022/10/06 08:35:17;;;;;;;;;;;;;;;;;;4964896;28;20483;-78
2022/10/06 08:37:42;;;;;;;;;;;;;;;;;;4970218;28;19910;-78
2022/10/06 08:40:11;;;;;;;;;;;;;;;;;;4967973;28;19921;-78
2022/10/06 08:42:49;;;;;;;;;;;;;;;;;;4968140;28;19918;-79
2022/10/06 08:45:19;;;;;;;;;;;;;;;;;;4976468;28;19928;-78
2022/10/06 08:47:53;;;;;;;;;;;;;;;;;;4970284;28;19922;-79
2022/10/06 08:50:21;;;;;;;;;;;;;;;;;;4966614;28;19910;-79
2022/10/06 08:52:49;;;;;;;;;;;;;;;;;;4966571;28;20130;-79
2022/10/06 08:55:14;;;;;;;;;;;;;;;;;;4967768;28;19964;-79
2022/10/06 08:57:58;;;;;;;;;;;;;;;;;;4969926;28;19910;-78
2022/10/06 09:00:23;;;;;;;;;;;;;;;;;;4965454;28;19915;-79
2022/10/06 09:02:49;;;;;;;;;;;;;;;;;;4967312;28;19926;-79
2022/10/06 09:05:18;;;;;;;;;;;;;;;;;;4967216;28;20220;-78
2022/10/06 09:07:52;;;;;;;;;;;;;;;;;;4980409;28;19985;-79
2022/10/06 09:10:23;;;;;;;;;;;;;;;;;;4981113;28;19937;-79
2022/10/06 09:12:58;;;;;;;;;;;;;;;;;;4980702;28;19922;-78
2022/10/06 09:15:36;;;;;;;;;;;;;;;;;;4975779;28;19914;-79
2022/10/06 09:18:09;;;;;;;;;;;;;;;;;;4979295;28;21164;-79
2022/10/06 09:20:38;;;;;;;;;;;;;;;;;;4977436;28;20230;-79
2022/10/06 09:23:05;;;;;;;;;;;;;;;;;;4976281;28;19976;-79
2022/10/06 09:25:30;;;;;;;;;;;;;;;;;;4980410;28;20220;-79
2022/10/06 09:27:56;;;;;;;;;;;;;;;;;;4981104;28;19949;-79
2022/10/06 09:30:22;;;;;;;;;;;;;;;;;;4984226;28;19910;-78
2022/10/06 09:32:56;;;;;;;;;;;;;;;;;;4985310;28;19910;-79
2022/10/06 09:35:22;;;;;;;;;;;;;;;;;;4983850;28;19945;-78
2022/10/06 09:37:53;;;;;;;;;;;;;;;;;;4984924;28;19932;-78
2022/10/06 09:40:54;;;;;;;;;;;;;;;;;;4983968;28;19997;-78
2022/10/06 09:43:24;;;;;;;;;;;;;;;;;;4870544;29;19923;-79
2022/10/06 09:45:50;;;;;;;;;;;;;;;;;;4963989;28;19997;-78
2022/10/06 09:48:23;;;;;;;;;;;;;;;;;;4981246;28;19914;-80
2022/10/06 09:51:18;;;;;;;;;;;;;;;;;;4976956;28;20205;-79
2022/10/06 09:54:02;;;;;;;;;;;;;;;;;;4969934;28;19937;-79
2022/10/06 09:56:27;;;;;;;;;;;;;;;;;;4984280;28;19960;-80
2022/10/06 09:58:56;;;;;;;;;;;;;;;;;;4984611;28;19922;-79
2022/10/06 10:01:23;;;;;;;;;;;;;;;;;;4984191;28;20322;-79
2022/10/06 10:03:50;;;;;;;;;;;;;;;;;;4987988;28;19953;-79
2022/10/06 10:06:23;;;;;;;;;;;;;;;;;;4978157;28;19914;-77
2022/10/06 10:08:48;;;;;;;;;;;;;;;;;;4983656;28;20279;-79
2022/10/06 10:14:03;;;;;;;;;;;;;;;;;;4982585;28;20182;-80
2022/10/06 10:16:33;;;;;;;;;;;;;;;;;;4984145;28;19918;-80
2022/10/06 10:18:59;;;;;;;;;;;;;;;;;;4984967;28;20213;-80
2022/10/06 10:21:25;;;;;;;;;;;;;;;;;;4983883;28;20226;-80
2022/10/06 10:23:54;;;;;;;;;;;;;;;;;;4984863;28;19918;-78
2022/10/06 10:26:25;;;;;;;;;;;;;;;;;;4984201;28;20197;-78
2022/10/06 10:28:53;;;;;;;;;;;;;;;;;;4978955;28;19922;-78
2022/10/06 10:31:37;;;;;;;;;;;;;;;;;;4983958;28;19918;-79
2022/10/06 10:34:07;;;;;;;;;;;;;;;;;;4983925;28;19916;-78
2022/10/06 10:36:44;;;;;;;;;;;;;;;;;;4983224;28;19913;-78
2022/10/06 10:39:18;;;;;;;;;;;;;;;;;;4982463;28;19989;-79
2022/10/06 10:41:46;;;;;;;;;;;;;;;;;;4982507;28;19926;-78
2022/10/06 10:44:45;;;;;;;;;;;;;;;;;;4979467;28;19917;-78
2022/10/06 10:47:21;;;;;;;;;;;;;;;;;;4955779;28;19917;-78
2022/10/06 10:49:49;;;;;;;;;;;;;;;;;;4977355;28;20017;-78
2022/10/06 10:52:19;;;;;;;;;;;;;;;;;;4982983;28;19910;-79
2022/10/06 10:55:03;;;;;;;;;;;;;;;;;;4982360;28;19969;-78
2022/10/06 10:57:38;;;;;;;;;;;;;;;;;;4979834;28;19910;-78
2022/10/06 11:00:06;;;;;;;;;;;;;;;;;;4983117;28;19917;-78
2022/10/06 11:02:34;;;;;;;;;;;;;;;;;;4983577;28;19975;-79
2022/10/06 11:05:11;;;;;;;;;;;;;;;;;;4982764;28;19924;-78
2022/10/06 11:07:41;;;;;;;;;;;;;;;;;;4983427;28;19972;-78
2022/10/06 11:10:12;;;;;;;;;;;;;;;;;;4983328;28;19918;-78
2022/10/06 11:12:53;;;;;;;;;;;;;;;;;;4983116;28;19910;-78
2022/10/06 11:15:44;;;;;;;;;;;;;;;;;;4983403;28;19917;-78
2022/10/06 11:18:21;;;;;;;;;;;;;;;;;;4983500;28;20248;-78
2022/10/06 11:21:04;;;;;;;;;;;;;;;;;;4982857;28;19909;-78
2022/10/06 11:23:30;;;;;;;;;;;;;;;;;;4981781;28;19972;-78
2022/10/06 11:25:58;;;;;;;;;;;;;;;;;;4982657;28;19977;-78
2022/10/06 11:28:39;;;;;;;;;;;;;;;;;;4977042;28;19917;-79
2022/10/06 11:31:23;;;;;;;;;;;;;;;;;;4998245;28;19910;-78
2022/10/06 11:33:52;;;;;;;;;;;;;;;;;;4980900;28;19968;-77
2022/10/06 11:36:28;;;;;;;;;;;;;;;;;;4983192;28;19918;-77
2022/10/06 11:39:00;;;;;;;;;;;;;;;;;;4982602;28;19925;-76
2022/10/06 11:41:30;;;;;;;;;;;;;;;;;;4981232;28;20224;-78
2022/10/06 11:43:59;;;;;;;;;;;;;;;;;;4982979;28;19924;-77
2022/10/06 11:46:34;;;;;;;;;;;;;;;;;;4982810;28;19917;-77
2022/10/06 11:49:18;;;;;;;;;;;;;;;;;;4976531;28;19917;-78
2022/10/06 11:51:43;;;;;;;;;;;;;;;;;;4978978;28;19918;-77
2022/10/06 11:54:28;;;;;;;;;;;;;;;;;;4982616;28;20221;-78
2022/10/06 11:56:53;;;;;;;;;;;;;;;;;;4981769;28;19924;-77
2022/10/06 11:59:23;;;;;;;;;;;;;;;;;;4982162;28;19946;-77
2022/10/06 12:01:49;;;;;;;;;;;;;;;;;;4983546;28;19910;-77
2022/10/06 12:04:15;;;;;;;;;;;;;;;;;;4983030;28;19977;-76
2022/10/06 12:06:40;;;;;;;;;;;;;;;;;;4982979;28;19977;-78
2022/10/06 12:09:24;;;;;;;;;;;;;;;;;;4982295;28;19910;-77
2022/10/06 12:11:52;;;;;;;;;;;;;;;;;;4983041;28;19906;-77
2022/10/06 12:14:36;;;;;;;;;;;;;;;;;;4983189;28;19916;-77
2022/10/06 12:17:15;;;;;;;;;;;;;;;;;;4980290;28;19910;-77
2022/10/06 12:19:49;;;;;;;;;;;;;;;;;;4982857;28;19982;-77
2022/10/06 12:22:21;;;;;;;;;;;;;;;;;;4983044;28;19910;-77
2022/10/06 12:25:01;;;;;;;;;;;;;;;;;;4982491;28;19906;-77
2022/10/06 12:27:45;;;;;;;;;;;;;;;;;;4982725;28;19910;-78
2022/10/06 12:30:22;;;;;;;;;;;;;;;;;;4978128;28;19928;-77
2022/10/06 12:32:54;;;;;;;;;;;;;;;;;;4979218;28;19961;-77
2022/10/06 12:35:23;;;;;;;;;;;;;;;;;;4980201;28;19910;-77
2022/10/06 12:37:51;;;;;;;;;;;;;;;;;;4982100;28;19914;-77
2022/10/06 12:40:36;;;;;;;;;;;;;;;;;;4981083;28;19933;-77
2022/10/06 12:43:13;;;;;;;;;;;;;;;;;;4972298;28;19915;-77
2022/10/06 12:45:42;;;;;;;;;;;;;;;;;;4965909;28;19958;-77
2022/10/06 12:48:27;;;;;;;;;;;;;;;;;;4968884;28;19966;-77
2022/10/06 12:51:04;;;;;;;;;;;;;;;;;;4967246;28;19985;-77
2022/10/06 12:53:33;;;;;;;;;;;;;;;;;;4966956;28;19969;-77
2022/10/06 12:56:03;;;;;;;;;;;;;;;;;;4966670;28;19989;-77
2022/10/06 12:58:31;;;;;;;;;;;;;;;;;;4972050;28;19917;-77
2022/10/06 13:01:10;;;;;;;;;;;;;;;;;;4982570;28;20245;-77
2022/10/06 13:03:36;;;;;;;;;;;;;;;;;;4981259;28;19993;-77
2022/10/06 13:06:03;;;;;;;;;;;;;;;;;;4985649;28;19921;-78
2022/10/06 13:08:30;;;;;;;;;;;;;;;;;;4982262;28;19953;-78
2022/10/06 13:11:10;;;;;;;;;;;;;;;;;;4982421;28;19913;-78
2022/10/06 13:13:36;;;;;;;;;;;;;;;;;;4979359;28;20257;-76
2022/10/06 13:16:02;;;;;;;;;;;;;;;;;;4982463;28;20256;-75
2022/10/06 13:18:27;;;;;;;;;;;;;;;;;;4982563;28;19918;-77
2022/10/06 13:20:54;;;;;;;;;;;;;;;;;;4981824;28;19910;-76
2022/10/06 13:23:19;;;;;;;;;;;;;;;;;;4976253;28;19914;-77
2022/10/06 13:25:49;;;;;;;;;;;;;;;;;;4982343;28;19914;-76
2022/10/06 13:28:18;;;;;;;;;;;;;;;;;;4982493;28;19914;-77
2022/10/06 13:30:48;;;;;;;;;;;;;;;;;;4996797;28;20095;-77
2022/10/06 13:33:13;;;;;;;;;;;;;;;;;;4982543;28;19993;-78
2022/10/06 13:35:38;;;;;;;;;;;;;;;;;;4980324;28;19918;-77
2022/10/06 13:38:04;;;;;;;;;;;;;;;;;;4982373;28;19940;-77
2022/10/06 13:40:32;;;;;;;;;;;;;;;;;;4982115;28;19981;-77
2022/10/06 13:42:58;;;;;;;;;;;;;;;;;;4981644;28;19945;-77
2022/10/06 13:45:24;;;;;;;;;;;;;;;;;;4982086;28;19917;-76
2022/10/06 13:48:03;;;;;;;;;;;;;;;;;;4982294;28;19910;-77
2022/10/06 13:50:29;;;;;;;;;;;;;;;;;;4975804;28;19913;-76
2022/10/06 13:52:54;;;;;;;;;;;;;;;;;;4982156;28;19910;-77
2022/10/06 13:55:24;;;;;;;;;;;;;;;;;;4981878;28;19906;-76
2022/10/06 13:58:01;;;;;;;;;;;;;;;;;;4980871;28;20198;-78
2022/10/06 14:00:26;;;;;;;;;;;;;;;;;;4976105;28;20244;-77
2022/10/06 14:02:56;;;;;;;;;;;;;;;;;;4979561;28;19922;-77
2022/10/06 14:05:21;;;;;;;;;;;;;;;;;;4980123;28;19939;-77
2022/10/06 14:07:47;;;;;;;;;;;;;;;;;;4968818;28;20316;-77
2022/10/06 14:10:14;;;;;;;;;;;;;;;;;;4981013;28;19957;-77
2022/10/06 14:12:46;;;;;;;;;;;;;;;;;;4981079;28;20229;-77
2022/10/06 14:15:21;;;;;;;;;;;;;;;;;;4977314;28;19910;-77
2022/10/06 14:18:00;;;;;;;;;;;;;;;;;;4985741;28;19910;-77
2022/10/06 14:20:36;;;;;;;;;;;;;;;;;;4983980;28;20114;-77
2022/10/06 14:23:21;;;;;;;;;;;;;;;;;;4983005;28;20121;-79
2022/10/06 14:25:47;;;;;;;;;;;;;;;;;;4984715;28;20217;-79
2022/10/06 14:28:13;;;;;;;;;;;;;;;;;;4984640;28;19941;-77
2022/10/06 14:30:39;;;;;;;;;;;;;;;;;;4984973;28;19917;-77
2022/10/06 14:33:04;;;;;;;;;;;;;;;;;;4984963;28;20214;-77
2022/10/06 14:35:29;;;;;;;;;;;;;;;;;;4984396;28;19916;-79
2022/10/06 14:37:55;;;;;;;;;;;;;;;;;;4985075;28;20097;-77
2022/10/06 14:40:20;;;;;;;;;;;;;;;;;;4984344;28;19956;-78
2022/10/06 14:42:45;;;;;;;;;;;;;;;;;;4984700;28;19914;-78
2022/10/06 14:45:12;;;;;;;;;;;;;;;;;;4984435;28;19985;-77
2022/10/06 14:47:37;;;;;;;;;;;;;;;;;;4984364;28;19910;-77
2022/10/06 14:50:05;;;;;;;;;;;;;;;;;;4984311;28;19952;-77
2022/10/06 14:52:31;;;;;;;;;;;;;;;;;;4984404;28;19999;-79
2022/10/06 14:54:57;;;;;;;;;;;;;;;;;;4984398;28;20327;-77
2022/10/06 14:57:22;;;;;;;;;;;;;;;;;;4977013;28;19922;-80
2022/10/06 14:59:48;;;;;;;;;;;;;;;;;;4978705;28;19996;-79
2022/10/06 15:02:13;;;;;;;;;;;;;;;;;;4984057;28;19917;-77
2022/10/06 15:04:38;;;;;;;;;;;;;;;;;;4983535;28;19985;-79
2022/10/06 15:09:47;;;;;;;;;;;;;;;;;;4983410;28;19929;-83
2022/10/06 15:12:13;;;;;;;;;;;;;;;;;;4983726;28;19910;-84
2022/10/06 15:14:38;;;;;;;;;;;;;;;;;;4984010;28;19975;-79
2022/10/06 15:17:04;;;;;;;;;;;;;;;;;;4984469;28;19939;-78
2022/10/06 15:19:29;;;;;;;;;;;;;;;;;;4983456;28;19985;-77
2022/10/06 15:21:55;;;;;;;;;;;;;;;;;;4983074;28;19910;-77
2022/10/06 15:24:20;;;;;;;;;;;;;;;;;;4983602;28;19917;-82
2022/10/06 15:29:30;;;;;;;;;;;;;;;;;;4982305;28;19941;-80
2022/10/06 15:31:57;;;;;;;;;;;;;;;;;;4983930;28;19910;-81
2022/10/06 15:34:26;;;;;;;;;;;;;;;;;;4983434;28;19981;-80
2022/10/06 15:36:52;;;;;;;;;;;;;;;;;;4983697;28;19910;-79
2022/10/06 15:39:19;;;;;;;;;;;;;;;;;;4983380;28;19977;-80
2022/10/06 15:41:44;;;;;;;;;;;;;;;;;;4983469;28;19922;-78
2022/10/06 15:44:10;;;;;;;;;;;;;;;;;;4983729;28;19933;-77
2022/10/06 15:46:37;;;;;;;;;;;;;;;;;;4983694;28;20029;-81
2022/10/06 15:49:05;;;;;;;;;;;;;;;;;;4983568;28;19949;-80
2022/10/06 15:51:33;;;;;;;;;;;;;;;;;;4980105;28;19910;-82
2022/10/06 15:53:59;;;;;;;;;;;;;;;;;;4982206;28;19922;-81
2022/10/06 15:56:24;;;;;;;;;;;;;;;;;;4983389;28;19984;-81
2022/10/06 15:58:50;;;;;;;;;;;;;;;;;;4983167;28;19930;-82
2022/10/06 16:01:31;;;;;;;;;;;;;;;;;;4983527;28;19914;-79
2022/10/06 16:03:58;;;;;;;;;;;;;;;;;;4980029;28;19925;-81
2022/10/06 16:06:48;;;;;;;;;;;;;;;;;;4983055;28;19914;-81
2022/10/06 16:09:13;;;;;;;;;;;;;;;;;;4983199;28;19914;-82
2022/10/06 16:11:38;;;;;;;;;;;;;;;;;;4982000;28;19941;-80
2022/10/06 16:14:04;;;;;;;;;;;;;;;;;;4982074;28;20229;-79
2022/10/06 16:16:30;;;;;;;;;;;;;;;;;;4983216;28;20037;-81
2022/10/06 16:18:56;;;;;;;;;;;;;;;;;;4981533;28;19917;-77
2022/10/06 16:21:21;;;;;;;;;;;;;;;;;;4979674;28;19910;-79
2022/10/06 16:23:46;;;;;;;;;;;;;;;;;;4981935;28;19924;-80
2022/10/06 16:26:11;;;;;;;;;;;;;;;;;;4981876;28;19918;-81
2022/10/06 16:28:37;;;;;;;;;;;;;;;;;;4981044;28;19989;-76
2022/10/06 16:31:02;;;;;;;;;;;;;;;;;;4980741;28;20258;-78
2022/10/06 16:33:27;;;;;;;;;;;;;;;;;;4981776;28;19914;-80
2022/10/06 16:35:54;;;;;;;;;;;;;;;;;;4980299;28;20150;-77
2022/10/06 16:38:19;;;;;;;;;;;;;;;;;;4981978;28;20212;-80
2022/10/06 16:40:51;;;;;;;;;;;;;;;;;;4981658;28;19961;-79
2022/10/06 16:43:16;;;;;;;;;;;;;;;;;;4979743;28;19918;-84
2022/10/06 16:45:42;;;;;;;;;;;;;;;;;;4981731;28;19924;-83
2022/10/06 16:48:07;;;;;;;;;;;;;;;;;;4974530;28;19922;-82
2022/10/06 16:50:32;;;;;;;;;;;;;;;;;;4979500;28;19917;-80
2022/10/06 16:52:57;;;;;;;;;;;;;;;;;;4980366;28;19977;-76
2022/10/06 16:55:23;;;;;;;;;;;;;;;;;;4980805;28;20182;-79
2022/10/06 16:57:48;;;;;;;;;;;;;;;;;;4980457;28;19945;-80
2022/10/06 17:00:13;;;;;;;;;;;;;;;;;;4981137;28;19980;-78
2022/10/06 17:02:39;;;;;;;;;;;;;;;;;;4981003;28;19914;-79
2022/10/06 17:05:05;;;;;;;;;;;;;;;;;;4977709;28;19917;-80
2022/10/06 17:07:31;;;;;;;;;;;;;;;;;;4979794;28;20157;-81
2022/10/06 17:09:57;;;;;;;;;;;;;;;;;;4980302;28;19914;-81
2022/10/06 17:12:22;;;;;;;;;;;;;;;;;;4980488;28;20351;-84
2022/10/06 17:14:47;;;;;;;;;;;;;;;;;;4978569;28;19922;-81